Time;durP1;ratioP1;P1;durP2;ratioP2;P2;SDS_P1;SDS_P2;PMS_P1;PMS_P2;Temp;Humidity;BMP_temperature;BMP_pressure;BME280_temperature;BME280_humidity;BME280_pressure;Samples;Min_cycle;Max_cycle;Signal;HPM_P1;HPM_P2
2022/10/04 00:01:48;;;;;;;7.40;4.33;;;14.00;93.00;;;;;;5070601;28;20491;-65
2022/10/04 00:04:19;;;;;;;13.73;5.07;;;14.00;93.10;;;;;;5072789;28;20483;-64
2022/10/04 00:06:52;;;;;;;7.30;4.47;;;14.00;93.10;;;;;;5074529;28;20465;-65
2022/10/04 00:09:23;;;;;;;7.37;4.63;;;14.10;93.30;;;;;;5059090;28;20495;-65
2022/10/04 00:11:52;;;;;;;6.50;5.30;;;14.10;93.30;;;;;;5059656;28;20550;-65
2022/10/04 00:14:23;;;;;;;8.70;5.30;;;14.10;93.30;;;;;;5068197;28;20454;-65
2022/10/04 00:16:50;;;;;;;6.90;4.10;;;14.10;93.20;;;;;;5061194;28;20461;-65
2022/10/04 00:19:45;;;;;;;5.47;4.07;;;14.10;93.20;;;;;;5075231;28;20488;-65
2022/10/04 00:22:18;;;;;;;11.57;4.50;;;14.10;93.50;;;;;;5061111;28;20858;-65
2022/10/04 00:25:19;;;;;;;6.17;4.60;;;14.10;93.10;;;;;;5068437;28;20479;-65
2022/10/04 00:28:24;;;;;;;7.50;4.73;;;14.10;93.10;;;;;;5058484;28;21010;-65
2022/10/04 00:31:10;;;;;;;9.20;4.30;;;14.10;92.90;;;;;;5068494;28;20523;-65
2022/10/04 00:33:38;;;;;;;6.40;4.00;;;14.00;92.70;;;;;;5068331;28;20457;-65
2022/10/04 00:36:40;;;;;;;6.07;4.30;;;14.00;92.80;;;;;;5074662;28;20468;-64
2022/10/04 00:39:36;;;;;;;12.53;3.97;;;14.00;92.80;;;;;;5065320;28;20513;-64
2022/10/04 00:42:22;;;;;;;16.00;4.40;;;13.90;92.70;;;;;;5074740;28;20502;-64
2022/10/04 00:44:53;;;;;;;6.73;4.77;;;13.90;92.70;;;;;;5055091;28;20477;-64
2022/10/04 00:47:26;;;;;;;11.40;5.13;;;14.00;92.80;;;;;;5054928;28;20466;-65
2022/10/04 00:49:59;;;;;;;10.60;4.50;;;14.00;92.90;;;;;;5054612;28;20470;-64
2022/10/04 00:52:29;;;;;;;5.93;4.87;;;13.90;92.90;;;;;;5058568;28;20487;-64
2022/10/04 00:55:01;;;;;;;7.70;4.17;;;13.90;92.90;;;;;;5074017;28;20452;-65
2022/10/04 00:57:32;;;;;;;5.70;4.07;;;13.90;92.80;;;;;;5053941;28;20479;-65
2022/10/04 01:00:03;;;;;;;7.43;4.23;;;13.80;92.80;;;;;;5054261;28;20478;-65
2022/10/04 01:02:37;;;;;;;8.00;4.70;;;13.80;92.90;;;;;;5054925;28;20466;-65
2022/10/04 01:05:09;;;;;;;7.80;4.67;;;13.80;93.00;;;;;;5054243;28;20476;-64
2022/10/04 01:07:39;;;;;;;9.43;4.40;;;13.80;93.00;;;;;;5055032;28;20436;-64
2022/10/04 01:10:11;;;;;;;7.20;4.10;;;13.80;93.00;;;;;;5053827;28;21002;-65
2022/10/04 01:12:45;;;;;;;6.30;5.13;;;13.80;93.10;;;;;;5055190;28;20464;-64
2022/10/04 01:15:17;;;;;;;7.50;5.23;;;13.80;93.20;;;;;;5066343;28;20959;-64
2022/10/04 01:18:09;;;;;;;9.70;4.07;;;13.80;93.30;;;;;;5072636;28;20459;-65
2022/10/04 01:20:39;;;;;;;7.63;4.60;;;13.80;93.40;;;;;;5071552;28;20500;-65
2022/10/04 01:23:10;;;;;;;14.67;4.70;;;13.80;93.40;;;;;;5074202;28;20464;-65
2022/10/04 01:25:48;;;;;;;6.63;4.57;;;13.80;93.40;;;;;;5068421;28;20469;-65
2022/10/04 01:28:15;;;;;;;5.37;4.73;;;13.80;93.50;;;;;;5055779;28;20840;-65
2022/10/04 01:30:43;;;;;;;10.23;4.90;;;13.80;93.50;;;;;;5065063;28;20523;-65
2022/10/04 01:33:11;;;;;;;13.50;5.70;;;13.80;93.60;;;;;;5066386;28;20472;-64
2022/10/04 01:35:38;;;;;;;6.87;4.50;;;13.80;93.60;;;;;;5060945;28;20833;-65
2022/10/04 01:38:07;;;;;;;10.13;4.47;;;13.80;93.60;;;;;;5066188;28;20481;-65
2022/10/04 01:40:34;;;;;;;8.70;4.60;;;13.70;93.50;;;;;;5057713;28;20486;-65
2022/10/04 01:43:04;;;;;;;8.20;4.73;;;13.70;93.50;;;;;;5058011;28;20457;-64
2022/10/04 01:45:38;;;;;;;5.33;4.17;;;13.70;93.50;;;;;;5071043;28;20469;-65
2022/10/04 01:48:11;;;;;;;6.57;4.30;;;13.70;93.60;;;;;;5066091;28;20485;-64
2022/10/04 01:50:40;;;;;;;6.27;4.23;;;13.70;93.70;;;;;;5063315;28;20489;-64
2022/10/04 01:53:15;;;;;;;6.40;4.93;;;13.70;93.70;;;;;;5064975;28;20890;-64
2022/10/04 01:55:47;;;;;;;6.57;4.43;;;13.70;93.70;;;;;;5071796;28;20650;-64
2022/10/04 01:58:18;;;;;;;6.27;4.27;;;13.70;93.70;;;;;;5054138;28;20476;-64
2022/10/04 02:00:50;;;;;;;5.50;4.30;;;13.70;93.60;;;;;;5053229;28;20875;-65
2022/10/04 02:03:20;;;;;;;8.93;4.10;;;13.70;93.60;;;;;;5058590;28;20513;-65
2022/10/04 02:05:52;;;;;;;6.30;4.10;;;13.70;93.60;;;;;;5066183;28;20912;-64
2022/10/04 02:08:25;;;;;;;4.80;4.00;;;13.70;93.50;;;;;;5065446;28;20475;-64
2022/10/04 02:10:53;;;;;;;5.17;4.60;;;13.60;93.40;;;;;;5069075;28;20492;-64
2022/10/04 02:13:23;;;;;;;9.30;5.00;;;13.60;93.30;;;;;;5057358;28;20862;-64
2022/10/04 02:15:50;;;;;;;6.20;4.60;;;13.60;93.20;;;;;;5069706;28;20464;-64
2022/10/04 02:18:20;;;;;;;5.27;4.00;;;13.60;93.00;;;;;;5062115;28;20467;-65
2022/10/04 02:20:48;;;;;;;6.87;5.10;;;13.60;93.00;;;;;;5069918;28;20523;-65
2022/10/04 02:23:18;;;;;;;6.57;4.50;;;13.60;93.00;;;;;;5053988;28;20819;-65
2022/10/04 02:25:46;;;;;;;5.53;5.00;;;13.50;93.00;;;;;;5069578;28;20490;-64
2022/10/04 02:28:14;;;;;;;9.97;5.20;;;13.50;93.10;;;;;;5053853;28;20447;-65
2022/10/04 02:32:56;;;;;;;5.90;4.47;;;13.50;93.10;;;;;;5052802;28;20927;-65
2022/10/04 02:33:30;;;;;;;7.17;4.37;;;13.50;93.10;;;;;;5054222;28;20457;-65
2022/10/04 02:35:58;;;;;;;7.10;3.90;;;13.40;93.10;;;;;;5070455;28;20534;-65
2022/10/04 02:38:30;;;;;;;10.50;5.80;;;13.50;93.30;;;;;;5070235;28;20512;-65
2022/10/04 02:41:03;;;;;;;8.17;6.23;;;13.40;93.40;;;;;;5057779;28;20474;-65
2022/10/04 02:43:37;;;;;;;10.07;4.73;;;13.40;93.60;;;;;;5066616;28;20821;-65
2022/10/04 02:46:11;;;;;;;7.00;4.40;;;13.40;93.70;;;;;;5063934;28;20458;-65
2022/10/04 02:48:44;;;;;;;5.90;4.50;;;13.40;93.70;;;;;;5075841;28;20454;-63
2022/10/04 02:51:21;;;;;;;8.70;4.50;;;13.40;93.70;;;;;;5072388;28;20471;-65
2022/10/04 02:53:57;;;;;;;6.93;5.37;;;13.40;93.70;;;;;;5059019;28;20447;-64
2022/10/04 02:56:26;;;;;;;10.67;5.20;;;13.40;93.60;;;;;;5075061;28;20463;-65
2022/10/04 02:58:54;;;;;;;7.60;5.20;;;13.40;93.70;;;;;;5076229;28;20467;-64
2022/10/04 03:01:35;;;;;;;8.53;4.40;;;13.50;93.70;;;;;;5066272;28;20866;-64
2022/10/04 03:04:04;;;;;;;6.27;4.23;;;13.40;93.60;;;;;;5061757;28;20870;-64
2022/10/04 03:06:33;;;;;;;8.00;4.77;;;13.40;93.60;;;;;;5070340;28;20882;-65
2022/10/04 03:09:03;;;;;;;6.73;5.27;;;13.40;93.60;;;;;;5071570;28;22059;-64
2022/10/04 03:11:35;;;;;;;6.60;4.90;;;13.40;93.60;;;;;;5073290;28;20466;-64
2022/10/04 03:14:04;;;;;;;7.43;4.50;;;13.40;93.70;;;;;;5075525;28;20458;-64
2022/10/04 03:16:35;;;;;;;12.50;6.00;;;13.40;93.80;;;;;;5064627;28;20501;-65
2022/10/04 03:19:03;;;;;;;9.87;5.13;;;13.40;93.90;;;;;;5062551;28;20873;-64
2022/10/04 03:21:32;;;;;;;5.97;4.90;;;13.40;94.00;;;;;;5073933;28;20467;-65
2022/10/04 03:24:00;;;;;;;6.90;5.80;;;13.40;94.10;;;;;;5062574;28;20504;-64
2022/10/04 03:26:29;;;;;;;7.40;5.23;;;13.40;94.20;;;;;;5061903;28;20490;-64
2022/10/04 03:28:58;;;;;;;7.87;4.63;;;13.30;94.10;;;;;;5064283;28;20463;-64
2022/10/04 03:31:26;;;;;;;12.10;4.73;;;13.30;94.10;;;;;;5065877;28;20475;-65
2022/10/04 03:33:55;;;;;;;5.93;4.07;;;13.40;94.20;;;;;;5058603;28;20969;-64
2022/10/04 03:36:24;;;;;;;9.43;5.40;;;13.40;94.10;;;;;;5068333;28;20468;-64
2022/10/04 03:38:54;;;;;;;9.70;5.57;;;13.30;93.80;;;;;;5070915;28;20460;-65
2022/10/04 03:41:22;;;;;;;8.47;4.97;;;13.30;93.70;;;;;;5074456;28;20489;-64
2022/10/04 03:43:50;;;;;;;6.73;4.43;;;13.30;93.80;;;;;;5066459;28;20968;-65
2022/10/04 03:46:21;;;;;;;6.37;4.60;;;13.20;94.10;;;;;;5063746;28;20495;-65
2022/10/04 03:48:50;;;;;;;7.70;5.80;;;13.20;93.90;;;;;;5063148;28;20475;-65
2022/10/04 03:51:22;;;;;;;6.87;5.20;;;13.10;93.80;;;;;;5061776;28;20469;-64
2022/10/04 03:53:51;;;;;;;7.77;5.33;;;13.00;93.90;;;;;;5074158;28;20490;-63
2022/10/04 03:56:22;;;;;;;8.83;5.10;;;12.90;94.10;;;;;;5066767;28;20464;-63
2022/10/04 03:58:51;;;;;;;13.17;4.80;;;12.90;94.20;;;;;;5075601;28;20462;-65
2022/10/04 04:01:30;;;;;;;7.30;5.80;;;12.90;94.40;;;;;;5066645;28;20866;-64
2022/10/04 04:04:05;;;;;;;11.13;5.70;;;12.90;94.40;;;;;;5068054;28;20825;-64
2022/10/04 04:06:40;;;;;;;11.00;6.80;;;12.90;94.50;;;;;;5061043;28;20466;-64
2022/10/04 04:09:08;;;;;;;4.93;4.53;;;12.90;94.40;;;;;;5070176;28;20493;-64
2022/10/04 04:11:36;;;;;;;7.90;4.80;;;12.90;94.40;;;;;;5066900;28;20471;-64
2022/10/04 04:14:06;;;;;;;7.23;6.23;;;12.90;94.30;;;;;;5070272;28;20447;-65
2022/10/04 04:16:36;;;;;;;8.33;5.37;;;13.00;94.20;;;;;;5074668;28;20458;-65
2022/10/04 04:19:11;;;;;;;8.80;5.30;;;12.90;94.00;;;;;;5073518;28;20555;-64
2022/10/04 04:21:37;;;;;;;7.97;4.90;;;12.80;94.00;;;;;;5071742;28;20456;-64
2022/10/04 04:24:12;;;;;;;8.67;5.33;;;12.80;94.10;;;;;;5055346;28;20469;-64
2022/10/04 04:26:43;;;;;;;7.93;5.17;;;12.70;94.20;;;;;;5057412;28;20469;-64
2022/10/04 04:29:18;;;;;;;11.13;5.57;;;12.70;94.30;;;;;;5055190;28;20477;-64
2022/10/04 04:31:52;;;;;;;6.23;5.23;;;12.70;94.30;;;;;;5065614;28;20836;-64
2022/10/04 04:34:21;;;;;;;8.80;5.73;;;12.70;94.40;;;;;;5070343;28;20461;-64
2022/10/04 04:36:48;;;;;;;8.67;5.80;;;12.60;94.50;;;;;;5056210;28;20467;-64
2022/10/04 04:39:36;;;;;;;8.83;5.50;;;12.60;94.60;;;;;;5067143;28;20532;-64
2022/10/04 04:42:10;;;;;;;7.17;5.27;;;12.60;94.60;;;;;;5069522;28;20878;-64
2022/10/04 04:44:38;;;;;;;6.40;5.20;;;12.70;94.70;;;;;;5054590;28;20477;-64
2022/10/04 04:47:09;;;;;;;8.20;5.27;;;12.70;94.70;;;;;;5054156;28;20985;-64
2022/10/04 04:49:39;;;;;;;6.47;4.93;;;12.70;94.70;;;;;;5055327;28;20476;-65
2022/10/04 04:52:15;;;;;;;6.93;5.30;;;12.70;94.60;;;;;;5057646;28;20510;-65
2022/10/04 04:54:45;;;;;;;6.80;6.00;;;12.70;94.70;;;;;;5062011;28;20466;-65
2022/10/04 04:57:16;;;;;;;9.63;5.53;;;12.70;94.70;;;;;;5074227;28;20468;-65
2022/10/04 04:59:46;;;;;;;8.70;5.37;;;12.70;94.80;;;;;;5053858;28;20487;-65
2022/10/04 05:02:33;;;;;;;8.47;5.20;;;12.70;94.70;;;;;;5054410;28;20877;-65
2022/10/04 05:05:17;;;;;;;8.80;5.03;;;12.70;94.80;;;;;;5057506;28;20529;-64
2022/10/04 05:07:44;;;;;;;5.33;4.83;;;12.80;94.80;;;;;;5067451;28;20939;-65
2022/10/04 05:10:28;;;;;;;6.97;5.60;;;12.80;94.70;;;;;;5054751;28;20487;-64
2022/10/04 05:12:55;;;;;;;6.87;5.70;;;12.80;94.70;;;;;;5068525;28;20464;-64
2022/10/04 05:15:22;;;;;;;7.27;5.20;;;12.80;94.60;;;;;;5067253;28;20468;-65
2022/10/04 05:17:50;;;;;;;8.87;6.10;;;12.80;94.50;;;;;;5063034;28;20464;-65
2022/10/04 05:20:18;;;;;;;8.33;5.60;;;12.90;94.40;;;;;;5074299;28;20469;-63
2022/10/04 05:22:49;;;;;;;8.37;5.17;;;12.90;94.20;;;;;;5071891;28;20467;-63
2022/10/04 05:25:26;;;;;;;12.43;5.90;;;12.90;94.10;;;;;;5069376;28;20504;-61
2022/10/04 05:27:54;;;;;;;6.93;5.70;;;12.90;94.00;;;;;;5078299;28;20818;-63
2022/10/04 05:30:35;;;;;;;10.43;6.00;;;12.90;93.80;;;;;;5070733;28;20484;-63
2022/10/04 05:33:06;;;;;;;10.10;5.87;;;12.80;93.70;;;;;;5082474;28;20433;-64
2022/10/04 05:35:45;;;;;;;11.87;5.43;;;12.80;93.60;;;;;;5074251;28;20453;-63
2022/10/04 05:38:17;;;;;;;10.00;5.50;;;12.80;93.60;;;;;;5060834;28;20464;-63
2022/10/04 05:40:48;;;;;;;10.27;5.40;;;12.80;93.60;;;;;;5060418;28;20484;-63
2022/10/04 05:43:28;;;;;;;9.27;5.77;;;12.80;93.60;;;;;;5064125;28;20539;-63
2022/10/04 05:46:23;;;;;;;8.73;5.93;;;12.90;93.60;;;;;;5076242;28;20488;-63
2022/10/04 05:48:55;;;;;;;11.70;5.60;;;12.80;93.50;;;;;;5074233;28;20547;-63
2022/10/04 05:51:25;;;;;;;9.53;6.00;;;12.90;93.50;;;;;;5079368;28;20467;-63
2022/10/04 05:53:53;;;;;;;7.20;5.60;;;12.80;93.40;;;;;;5078026;28;20471;-63
2022/10/04 05:56:53;;;;;;;10.40;5.70;;;12.80;93.30;;;;;;5078395;28;20460;-63
2022/10/04 05:59:36;;;;;;;10.37;6.23;;;12.80;93.40;;;;;;5061779;28;20527;-64
2022/10/04 06:02:11;;;;;;;14.30;5.90;;;12.80;93.80;;;;;;5060374;28;20602;-63
2022/10/04 06:04:55;;;;;;;8.13;5.63;;;12.80;93.40;;;;;;5061265;28;20467;-64
2022/10/04 06:07:27;;;;;;;7.00;5.37;;;12.80;93.30;;;;;;5061959;28;20453;-64
2022/10/04 06:10:11;;;;;;;10.30;6.50;;;12.80;93.20;;;;;;5064695;28;20519;-64
2022/10/04 06:12:49;;;;;;;11.40;7.30;;;12.80;93.20;;;;;;5067816;28;20479;-63
2022/10/04 06:15:26;;;;;;;12.30;7.43;;;12.80;93.30;;;;;;5068511;28;20458;-65
2022/10/04 06:18:06;;;;;;;9.97;6.20;;;12.80;93.30;;;;;;5082070;28;20516;-63
2022/10/04 06:20:50;;;;;;;13.30;7.53;;;12.80;93.30;;;;;;5069123;28;20496;-63
2022/10/04 06:23:19;;;;;;;8.17;6.80;;;12.80;93.40;;;;;;5066717;28;20437;-64
2022/10/04 06:25:51;;;;;;;11.23;6.83;;;12.80;93.40;;;;;;5066359;28;20488;-64
2022/10/04 06:28:23;;;;;;;15.17;6.30;;;12.80;93.40;;;;;;5066649;28;20462;-63
2022/10/04 06:31:25;;;;;;;8.47;7.00;;;12.80;93.40;;;;;;5067390;28;20487;-64
2022/10/04 06:34:12;;;;;;;16.90;8.13;;;12.90;93.40;;;;;;5063483;28;20457;-63
2022/10/04 06:37:04;;;;;;;7.60;6.40;;;12.90;93.40;;;;;;5068697;28;20471;-64
2022/10/04 06:39:53;;;;;;;13.83;7.87;;;12.90;93.40;;;;;;5067258;28;20480;-64
2022/10/04 06:42:51;;;;;;;22.17;7.70;;;13.00;93.50;;;;;;5066719;28;20432;-63
2022/10/04 06:45:29;;;;;;;11.47;6.77;;;13.00;93.50;;;;;;5066182;28;20473;-63
2022/10/04 06:48:13;;;;;;;11.60;6.90;;;13.00;93.50;;;;;;5066756;28;20906;-64
2022/10/04 06:50:47;;;;;;;12.50;7.93;;;13.10;93.50;;;;;;5066529;28;20464;-65
2022/10/04 06:53:24;;;;;;;8.90;8.00;;;13.10;93.60;;;;;;5066188;28;20427;-65
2022/10/04 06:56:06;;;;;;;10.63;7.90;;;13.20;93.70;;;;;;5066285;28;20454;-63
2022/10/04 06:59:06;;;;;;;8.97;7.37;;;13.30;93.80;;;;;;5066273;28;20449;-63
2022/10/04 07:01:34;;;;;;;13.30;8.07;;;13.40;93.80;;;;;;5066094;28;20434;-64
2022/10/04 07:04:13;;;;;;;14.70;7.03;;;13.50;93.70;;;;;;5066574;28;20430;-64
2022/10/04 07:07:22;;;;;;;9.67;6.50;;;13.60;93.60;;;;;;5071186;28;20472;-64
2022/10/04 07:09:44;;;;;;;10.23;6.80;;;13.70;93.40;;;;;;5078061;28;20509;-63
2022/10/04 07:12:14;;;;;;;6.97;5.93;;;13.80;93.20;;;;;;5068149;28;20443;-65
2022/10/04 07:14:46;;;;;;;7.63;6.53;;;13.80;93.20;;;;;;5069937;28;20516;-65
2022/10/04 07:17:18;;;;;;;10.20;6.33;;;13.90;93.10;;;;;;5067927;28;20437;-65
2022/10/04 07:19:47;;;;;;;9.80;6.27;;;14.00;92.90;;;;;;5066538;28;20473;-65
2022/10/04 07:22:20;;;;;;;16.60;6.20;;;14.00;92.50;;;;;;5065499;28;20459;-65
2022/10/04 07:25:05;;;;;;;9.53;6.37;;;14.00;92.40;;;;;;5066263;28;20429;-65
2022/10/04 07:27:36;;;;;;;7.83;5.70;;;14.00;92.30;;;;;;5067274;28;20805;-64
2022/10/04 07:30:06;;;;;;;12.40;6.27;;;13.90;92.30;;;;;;5066207;28;20975;-64
2022/10/04 07:32:37;;;;;;;12.07;5.80;;;14.00;92.50;;;;;;5067123;28;20432;-65
2022/10/04 07:35:13;;;;;;;8.73;5.20;;;14.00;92.40;;;;;;5065962;28;20429;-65
2022/10/04 07:37:48;;;;;;;8.40;5.50;;;14.00;92.40;;;;;;5066148;28;20432;-64
2022/10/04 07:40:24;;;;;;;7.23;5.50;;;14.00;92.30;;;;;;5065549;28;20473;-64
2022/10/04 07:42:54;;;;;;;10.03;6.70;;;14.00;92.30;;;;;;5066369;28;20433;-64
2022/10/04 07:45:25;;;;;;;8.73;5.17;;;14.00;92.40;;;;;;5066964;28;20479;-64
2022/10/04 07:48:01;;;;;;;7.03;5.70;;;14.00;92.50;;;;;;5065937;28;20922;-64
2022/10/04 07:50:35;;;;;;;6.60;5.60;;;14.10;92.60;;;;;;5065705;28;20476;-65
2022/10/04 07:53:05;;;;;;;8.00;6.10;;;14.10;92.70;;;;;;5066604;28;20509;-65
2022/10/04 07:55:45;;;;;;;9.47;5.87;;;14.20;92.70;;;;;;5065443;28;20452;-64
2022/10/04 07:58:26;;;;;;;8.27;7.00;;;14.20;92.80;;;;;;5065474;28;20437;-65
2022/10/04 08:00:58;;;;;;;9.60;6.30;;;14.30;92.80;;;;;;5065564;28;20469;-65
2022/10/04 08:03:45;;;;;;;11.83;7.70;;;14.40;92.70;;;;;;5064971;28;20444;-64
2022/10/04 08:06:17;;;;;;;9.53;6.57;;;14.50;92.50;;;;;;5064629;28;20480;-64
2022/10/04 08:09:03;;;;;;;12.83;7.50;;;14.50;92.40;;;;;;5063765;28;20477;-65
2022/10/04 08:11:42;;;;;;;8.93;6.57;;;14.60;92.30;;;;;;5063320;28;20461;-65
2022/10/04 08:14:24;;;;;;;9.57;6.67;;;14.70;92.20;;;;;;5063352;28;20433;-64
2022/10/04 08:17:07;;;;;;;10.30;7.37;;;14.80;92.20;;;;;;5062315;28;20428;-64
2022/10/04 08:19:43;;;;;;;11.83;6.50;;;14.90;92.10;;;;;;5062752;28;20480;-64
2022/10/04 08:22:22;;;;;;;9.83;6.50;;;14.90;92.00;;;;;;5063420;28;20437;-64
2022/10/04 08:24:58;;;;;;;9.90;6.53;;;15.00;92.00;;;;;;5064001;28;20481;-64
2022/10/04 08:27:39;;;;;;;13.47;7.10;;;15.00;91.90;;;;;;5062096;28;20969;-64
2022/10/04 08:30:12;;;;;;;13.83;7.17;;;15.10;91.90;;;;;;5062367;28;20473;-64
2022/10/04 08:32:54;;;;;;;11.80;8.20;;;15.10;91.80;;;;;;5061769;28;20461;-64
2022/10/04 08:35:35;;;;;;;19.90;17.90;;;15.10;91.70;;;;;;5062240;28;20434;-64
2022/10/04 08:38:20;;;;;;;13.60;12.30;;;15.10;91.70;;;;;;5061692;28;20521;-64
2022/10/04 08:41:25;;;;;;;13.17;9.20;;;15.20;91.70;;;;;;5062141;28;20567;-65
2022/10/04 08:44:31;;;;;;;12.60;8.80;;;15.30;91.80;;;;;;5012596;28;20452;-64
2022/10/04 08:47:28;;;;;;;17.17;8.77;;;15.30;91.70;;;;;;5037471;28;20493;-64
2022/10/04 08:50:31;;;;;;;13.90;8.07;;;15.30;91.60;;;;;;5058843;28;20541;-64
2022/10/04 08:53:34;;;;;;;9.70;8.60;;;15.40;91.60;;;;;;5048958;28;20950;-64
2022/10/04 08:56:18;;;;;;;17.20;12.40;;;15.40;91.40;;;;;;5061821;28;20451;-64
2022/10/04 08:59:11;;;;;;;15.77;10.30;;;15.50;91.40;;;;;;5061622;28;20487;-66
2022/10/04 09:02:14;;;;;;;14.77;11.23;;;15.60;91.30;;;;;;5062292;28;20441;-65
2022/10/04 09:05:22;;;;;;;14.10;10.00;;;15.60;91.10;;;;;;5042383;28;20457;-64
2022/10/04 09:08:17;;;;;;;13.17;8.20;;;15.70;90.90;;;;;;5062628;28;20473;-64
2022/10/04 09:10:58;;;;;;;9.40;7.37;;;15.70;90.90;;;;;;5061005;28;20481;-64
2022/10/04 09:13:35;;;;;;;13.60;9.10;;;15.80;91.10;;;;;;5061713;28;20807;-65
2022/10/04 09:16:18;;;;;;;12.43;8.57;;;15.80;91.00;;;;;;5061715;28;20441;-65
2022/10/04 09:19:19;;;;;;;12.37;9.47;;;15.90;90.90;;;;;;5061588;28;20438;-64
2022/10/04 09:22:09;;;;;;;13.60;8.80;;;16.10;91.20;;;;;;5057541;28;20478;-64
2022/10/04 09:24:56;;;;;;;13.70;10.07;;;16.20;91.30;;;;;;5060650;28;20926;-66
2022/10/04 09:27:43;;;;;;;12.87;10.60;;;16.30;91.40;;;;;;5060340;28;20474;-64
2022/10/04 09:30:18;;;;;;;14.63;8.70;;;16.40;90.10;;;;;;5059911;28;20477;-66
2022/10/04 09:33:24;;;;;;;14.97;10.30;;;16.50;90.60;;;;;;5060093;28;20430;-66
2022/10/04 09:36:18;;;;;;;9.93;8.50;;;16.70;90.80;;;;;;4999036;28;20544;-64
2022/10/04 09:39:07;;;;;;;20.10;18.17;;;16.90;91.10;;;;;;5060310;28;20930;-64
2022/10/04 09:42:03;;;;;;;29.20;25.80;;;17.20;90.80;;;;;;5060155;28;20426;-65
2022/10/04 09:45:04;;;;;;;21.80;19.60;;;17.50;89.60;;;;;;5059809;28;20445;-65
2022/10/04 09:47:44;;;;;;;25.73;22.57;;;17.80;90.00;;;;;;5040050;28;20489;-65
2022/10/04 09:50:52;;;;;;;27.27;24.27;;;18.10;85.20;;;;;;5059150;28;20853;-66
2022/10/04 09:53:51;;;;;;;28.40;25.43;;;18.40;81.90;;;;;;5059827;28;20454;-65
2022/10/04 09:56:38;;;;;;;23.50;21.00;;;18.90;82.50;;;;;;5059865;28;20442;-66
2022/10/04 09:59:23;;;;;;;26.67;23.90;;;19.40;80.20;;;;;;5060193;28;20472;-66
2022/10/04 10:02:06;;;;;;;14.07;9.73;;;19.90;77.00;;;;;;5060544;28;20438;-66
2022/10/04 10:04:48;;;;;;;18.10;14.30;;;20.40;76.10;;;;;;5061436;28;20918;-66
2022/10/04 10:07:39;;;;;;;58.03;42.10;;;21.00;73.50;;;;;;5061229;28;20515;-65
2022/10/04 10:13:42;;;;;;;20.90;15.47;;;22.20;65.40;;;;;;5060404;28;20397;-67
2022/10/04 10:16:39;;;;;;;9.90;8.50;;;22.90;61.50;;;;;;5009463;28;20969;-67
2022/10/04 10:19:27;;;;;;;7.60;5.70;;;;;;;;;;5060651;28;20458;-67
2022/10/04 10:22:12;;;;;;;7.77;5.30;;;24.60;65.70;;;;;;5066362;28;20433;-67
2022/10/04 10:25:02;;;;;;;7.03;5.57;;;24.60;68.70;;;;;;5069209;28;20434;-67
2022/10/04 10:27:49;;;;;;;8.10;5.43;;;25.20;52.90;;;;;;5060442;28;20568;-66
2022/10/04 10:30:22;;;;;;;8.37;5.23;;;25.90;50.70;;;;;;5061462;28;20473;-66
2022/10/04 10:33:22;;;;;;;7.50;4.93;;;26.50;46.80;;;;;;5062202;28;20797;-66
2022/10/04 10:36:23;;;;;;;10.90;5.70;;;27.00;45.90;;;;;;5060957;28;20437;-66
2022/10/04 10:39:09;;;;;;;9.37;6.60;;;27.80;45.00;;;;;;5060063;28;20437;-66
2022/10/04 10:42:10;;;;;;;9.93;6.17;;;28.30;44.40;;;;;;5060618;28;20449;-66
2022/10/04 10:45:04;;;;;;;9.90;5.00;;;28.90;42.10;;;;;;5049199;28;20457;-66
2022/10/04 10:47:43;;;;;;;8.50;5.53;;;29.40;38.90;;;;;;5059244;28;20912;-67
2022/10/04 10:50:30;;;;;;;6.83;4.93;;;29.90;39.10;;;;;;5059461;28;20480;-67
2022/10/04 10:53:19;;;;;;;5.57;4.07;;;30.40;38.00;;;;;;5060036;28;20436;-67
2022/10/04 10:56:34;;;;;;;3.83;3.00;;;30.70;34.60;;;;;;5059003;28;20449;-67
2022/10/04 10:59:34;;;;;;;3.23;2.50;;;31.00;32.10;;;;;;5062613;28;20468;-68
2022/10/04 11:02:39;;;;;;;5.83;2.80;;;31.10;31.60;;;;;;5030487;28;20792;-68
2022/10/04 11:05:29;;;;;;;8.20;2.80;;;31.40;32.00;;;;;;5000301;28;20436;-66
2022/10/04 11:08:03;;;;;;;4.30;2.97;;;31.40;31.50;;;;;;5055641;28;20480;-66
2022/10/04 11:11:08;;;;;;;4.87;3.07;;;31.60;32.00;;;;;;5056983;28;20498;-68
2022/10/04 11:13:54;;;;;;;6.97;3.23;;;31.80;30.90;;;;;;5057049;28;20440;-68
2022/10/04 11:16:50;;;;;;;5.70;3.00;;;32.00;29.90;;;;;;5056856;28;20437;-68
2022/10/04 11:19:54;;;;;;;5.33;3.00;;;32.30;29.40;;;;;;5056642;28;20465;-68
2022/10/04 11:23:00;;;;;;;4.83;2.90;;;32.30;29.20;;;;;;5056376;28;20436;-68
2022/10/04 11:25:46;;;;;;;5.07;2.70;;;32.40;29.20;;;;;;5058131;28;20569;-67
2022/10/04 11:28:18;;;;;;;4.40;2.60;;;32.70;29.70;;;;;;5056192;28;21011;-67
2022/10/04 11:31:23;;;;;;;6.50;3.13;;;33.10;29.10;;;;;;5056584;28;20457;-67
2022/10/04 11:34:26;;;;;;;6.43;3.23;;;33.50;27.80;;;;;;5056472;28;20441;-68
2022/10/04 11:37:07;;;;;;;3.33;2.40;;;33.90;27.90;;;;;;5056852;28;20789;-68
2022/10/04 11:40:06;;;;;;;3.20;2.70;;;34.40;27.00;;;;;;5056753;28;20993;-68
2022/10/04 11:42:53;;;;;;;2.93;2.50;;;34.80;26.10;;;;;;5055726;28;20457;-68
2022/10/04 11:45:37;;;;;;;3.33;2.73;;;34.90;24.90;;;;;;5056215;28;20198;-68
2022/10/04 11:48:16;;;;;;;7.97;3.23;;;34.60;25.30;;;;;;5057352;28;20477;-67
2022/10/04 11:51:09;;;;;;;3.93;2.93;;;34.60;25.80;;;;;;5055069;28;20477;-67
2022/10/04 11:54:12;;;;;;;3.77;2.40;;;34.80;25.60;;;;;;5056402;28;20453;-67
2022/10/04 11:56:51;;;;;;;4.33;3.10;;;35.10;25.00;;;;;;5024722;28;20477;-68
2022/10/04 11:59:37;;;;;;;4.93;3.40;;;35.20;24.90;;;;;;5056463;28;20621;-67
2022/10/04 12:02:38;;;;;;;6.90;2.67;;;35.40;25.00;;;;;;5056969;28;20297;-68
2022/10/04 12:05:32;;;;;;;5.00;2.87;;;35.50;24.50;;;;;;5031084;28;20198;-68
2022/10/04 12:08:19;;;;;;;6.10;2.63;;;35.40;25.00;;;;;;5055460;28;20211;-68
2022/10/04 12:11:03;;;;;;;4.63;2.80;;;35.40;25.40;;;;;;5056154;28;20472;-67
2022/10/04 12:13:53;;;;;;;4.20;2.70;;;35.80;25.00;;;;;;5056344;28;20191;-68
2022/10/04 12:16:46;;;;;;;4.93;2.60;;;36.10;24.20;;;;;;5056171;28;20190;-68
2022/10/04 12:19:51;;;;;;;4.13;2.63;;;36.50;22.80;;;;;;5056618;28;20230;-68
2022/10/04 12:22:39;;;;;;;6.32;2.80;;;36.60;22.80;;;;;;5054850;28;20202;-68
2022/10/04 12:25:43;;;;;;;4.47;2.55;;;36.80;22.70;;;;;;5053227;28;20210;-68
2022/10/04 12:28:33;;;;;;;3.92;3.00;;;36.60;23.10;;;;;;5056135;28;20226;-68
2022/10/04 12:31:20;;;;;;;6.47;3.42;;;36.60;23.20;;;;;;5056017;28;20309;-68
2022/10/04 12:33:53;;;;;;;6.63;3.05;;;36.70;23.40;;;;;;5055900;28;20606;-68
2022/10/04 12:36:33;;;;;;;3.95;2.92;;;36.70;23.30;;;;;;5055762;28;20589;-68
2022/10/04 12:39:15;;;;;;;5.07;2.70;;;36.70;23.70;;;;;;5055939;28;20249;-68
2022/10/04 12:41:54;;;;;;;4.75;2.60;;;36.90;23.10;;;;;;5055691;28;20198;-68
2022/10/04 12:44:40;;;;;;;4.18;2.95;;;37.20;22.90;;;;;;5055830;28;20245;-68
2022/10/04 12:47:37;;;;;;;4.45;2.75;;;37.50;21.80;;;;;;5055217;28;20242;-68
2022/10/04 12:50:12;;;;;;;3.90;2.70;;;37.50;21.60;;;;;;5054908;28;20218;-67
2022/10/04 12:52:45;;;;;;;3.78;2.30;;;37.50;22.00;;;;;;5055720;28;20194;-67
2022/10/04 12:55:41;;;;;;;4.05;2.92;;;37.70;21.80;;;;;;5055117;28;20187;-67
2022/10/04 12:58:18;;;;;;;5.05;2.35;;;38.00;21.70;;;;;;5056070;28;20203;-67
2022/10/04 13:00:48;;;;;;;4.28;2.60;;;38.30;21.10;;;;;;5055124;28;20245;-68
2022/10/04 13:03:31;;;;;;;3.20;2.58;;;38.60;21.00;;;;;;5054553;28;20641;-69
2022/10/04 13:06:09;;;;;;;3.92;2.45;;;38.50;21.20;;;;;;5055141;28;20281;-68
2022/10/04 13:08:47;;;;;;;3.58;2.60;;;38.50;21.50;;;;;;5055110;28;20222;-68
2022/10/04 13:11:32;;;;;;;5.50;2.80;;;38.60;21.20;;;;;;5054310;28;20206;-68
2022/10/04 13:14:38;;;;;;;4.38;2.50;;;38.80;20.40;;;;;;5054544;28;20190;-68
2022/10/04 13:17:13;;;;;;;5.63;2.50;;;38.50;20.40;;;;;;5054387;28;20207;-68
2022/10/04 13:19:52;;;;;;;5.85;2.53;;;38.00;20.70;;;;;;5054577;28;20234;-68
2022/10/04 13:22:29;;;;;;;5.60;2.97;;;37.80;21.70;;;;;;5055528;28;20210;-68
2022/10/04 13:25:14;;;;;;;4.53;2.90;;;37.90;21.30;;;;;;5055236;28;20190;-68
2022/10/04 13:27:48;;;;;;;4.97;2.58;;;38.30;21.30;;;;;;5054877;28;20206;-68
2022/10/04 13:30:22;;;;;;;4.38;2.90;;;38.70;21.10;;;;;;5054653;28;20231;-68
2022/10/04 13:32:58;;;;;;;5.75;3.00;;;39.00;20.40;;;;;;5054505;28;20263;-68
2022/10/04 13:35:31;;;;;;;3.03;2.50;;;39.20;20.40;;;;;;5057333;28;20205;-68
2022/10/04 13:38:16;;;;;;;3.78;2.88;;;39.40;19.90;;;;;;5060543;28;20184;-68
2022/10/04 13:40:54;;;;;;;7.05;2.50;;;39.30;20.00;;;;;;5055328;28;20230;-69
2022/10/04 13:44:01;;;;;;;3.40;2.83;;;38.80;20.30;;;;;;5054877;28;20274;-68
2022/10/04 13:46:39;;;;;;;6.95;3.00;;;38.30;21.00;;;;;;5054242;28;20627;-68
2022/10/04 13:49:20;;;;;;;6.00;2.80;;;37.50;21.40;;;;;;5054526;28;20227;-68
2022/10/04 13:57:45;;;;;;;4.83;2.63;;;35.80;22.90;;;;;;5055296;28;20177;-68